sensor_id;sensor_type;location;lat;lon;timestamp;temperature;humidity
8313;DHT22;4194;43.408;24.626;2023-11-22T00:00:55;9.40;99.90
8313;DHT22;4194;43.408;24.626;2023-11-22T00:03:21;9.30;99.90
8313;DHT22;4194;43.408;24.626;2023-11-22T00:05:49;9.40;99.90
8313;DHT22;4194;43.408;24.626;2023-11-22T00:08:15;9.40;99.90
8313;DHT22;4194;43.408;24.626;2023-11-22T00:10:41;9.40;99.90
8313;DHT22;4194;43.408;24.626;2023-11-22T00:13:07;9.40;99.90
8313;DHT22;4194;43.408;24.626;2023-11-22T00:15:33;9.40;99.90
8313;DHT22;4194;43.408;24.626;2023-11-22T00:17:58;9.40;99.90
8313;DHT22;4194;43.408;24.626;2023-11-22T00:20:28;9.40;99.90
8313;DHT22;4194;43.408;24.626;2023-11-22T00:22:54;9.30;99.90
8313;DHT22;4194;43.408;24.626;2023-11-22T00:25:19;9.30;99.90
8313;DHT22;4194;43.408;24.626;2023-11-22T00:27:45;9.30;99.90
8313;DHT22;4194;43.408;24.626;2023-11-22T00:30:13;9.30;99.90
8313;DHT22;4194;43.408;24.626;2023-11-22T00:32:38;9.30;99.90
8313;DHT22;4194;43.408;24.626;2023-11-22T00:35:06;9.30;99.90
8313;DHT22;4194;43.408;24.626;2023-11-22T00:37:33;9.30;99.90
8313;DHT22;4194;43.408;24.626;2023-11-22T00:40:03;9.30;99.90
8313;DHT22;4194;43.408;24.626;2023-11-22T00:42:37;9.20;99.90
8313;DHT22;4194;43.408;24.626;2023-11-22T00:45:05;9.30;99.90
8313;DHT22;4194;43.408;24.626;2023-11-22T00:47:32;9.40;99.90
8313;DHT22;4194;43.408;24.626;2023-11-22T00:49:58;9.30;99.90
8313;DHT22;4194;43.408;24.626;2023-11-22T00:52:24;9.20;99.90
8313;DHT22;4194;43.408;24.626;2023-11-22T00:54:50;9.20;99.90
8313;DHT22;4194;43.408;24.626;2023-11-22T00:57:15;9.10;99.90
8313;DHT22;4194;43.408;24.626;2023-11-22T00:59:41;9.10;99.90
8313;DHT22;4194;43.408;24.626;2023-11-22T01:02:07;9.20;99.90
8313;DHT22;4194;43.408;24.626;2023-11-22T01:04:34;9.30;99.90
8313;DHT22;4194;43.408;24.626;2023-11-22T01:07:02;9.30;99.90
8313;DHT22;4194;43.408;24.626;2023-11-22T01:09:30;9.20;99.90
8313;DHT22;4194;43.408;24.626;2023-11-22T01:11:57;9.00;99.90
8313;DHT22;4194;43.408;24.626;2023-11-22T01:14:23;9.20;99.90
8313;DHT22;4194;43.408;24.626;2023-11-22T01:16:49;9.20;99.90
8313;DHT22;4194;43.408;24.626;2023-11-22T01:19:15;9.20;99.90
8313;DHT22;4194;43.408;24.626;2023-11-22T01:21:41;9.10;99.90
8313;DHT22;4194;43.408;24.626;2023-11-22T01:24:07;9.10;99.90
8313;DHT22;4194;43.408;24.626;2023-11-22T01:26:33;9.10;99.90
8313;DHT22;4194;43.408;24.626;2023-11-22T01:29:00;9.10;99.90
8313;DHT22;4194;43.408;24.626;2023-11-22T01:31:25;9.10;99.90
8313;DHT22;4194;43.408;24.626;2023-11-22T01:33:53;9.20;99.90
8313;DHT22;4194;43.408;24.626;2023-11-22T01:36:19;9.10;99.90
8313;DHT22;4194;43.408;24.626;2023-11-22T01:38:45;9.10;99.90
8313;DHT22;4194;43.408;24.626;2023-11-22T01:41:12;9.10;99.90
8313;DHT22;4194;43.408;24.626;2023-11-22T01:43:41;9.00;99.90
8313;DHT22;4194;43.408;24.626;2023-11-22T01:46:08;9.10;99.90
8313;DHT22;4194;43.408;24.626;2023-11-22T01:48:34;9.10;99.90
8313;DHT22;4194;43.408;24.626;2023-11-22T01:51:02;9.10;99.90
8313;DHT22;4194;43.408;24.626;2023-11-22T01:53:28;9.20;99.90
8313;DHT22;4194;43.408;24.626;2023-11-22T01:55:55;8.90;99.90
8313;DHT22;4194;43.408;24.626;2023-11-22T01:58:21;9.10;99.90
8313;DHT22;4194;43.408;24.626;2023-11-22T02:00:52;9.10;99.90
8313;DHT22;4194;43.408;24.626;2023-11-22T02:03:18;9.10;99.90
8313;DHT22;4194;43.408;24.626;2023-11-22T02:05:45;9.00;99.90
8313;DHT22;4194;43.408;24.626;2023-11-22T02:08:11;9.10;99.90
8313;DHT22;4194;43.408;24.626;2023-11-22T02:10:38;9.10;99.90
8313;DHT22;4194;43.408;24.626;2023-11-22T02:13:05;9.20;99.90
8313;DHT22;4194;43.408;24.626;2023-11-22T02:15:33;9.10;99.90
8313;DHT22;4194;43.408;24.626;2023-11-22T02:17:59;9.00;99.90
8313;DHT22;4194;43.408;24.626;2023-11-22T02:20:25;8.90;99.90
8313;DHT22;4194;43.408;24.626;2023-11-22T02:22:51;9.20;99.90
8313;DHT22;4194;43.408;24.626;2023-11-22T02:25:18;8.70;99.90
8313;DHT22;4194;43.408;24.626;2023-11-22T02:27:45;9.00;99.90
8313;DHT22;4194;43.408;24.626;2023-11-22T02:30:11;9.00;99.90
8313;DHT22;4194;43.408;24.626;2023-11-22T02:32:37;9.00;99.90
8313;DHT22;4194;43.408;24.626;2023-11-22T02:35:05;9.20;99.90
8313;DHT22;4194;43.408;24.626;2023-11-22T02:37:33;9.10;99.90
8313;DHT22;4194;43.408;24.626;2023-11-22T02:40:16;9.10;99.90
8313;DHT22;4194;43.408;24.626;2023-11-22T02:42:43;9.10;99.90
8313;DHT22;4194;43.408;24.626;2023-11-22T02:45:09;9.00;99.90
8313;DHT22;4194;43.408;24.626;2023-11-22T02:47:35;9.10;99.90
8313;DHT22;4194;43.408;24.626;2023-11-22T02:50:04;9.00;99.90
8313;DHT22;4194;43.408;24.626;2023-11-22T02:52:31;9.00;99.90
8313;DHT22;4194;43.408;24.626;2023-11-22T02:54:57;9.20;99.90
8313;DHT22;4194;43.408;24.626;2023-11-22T02:57:24;9.00;99.90
8313;DHT22;4194;43.408;24.626;2023-11-22T02:59:50;9.00;99.90
8313;DHT22;4194;43.408;24.626;2023-11-22T03:02:15;8.90;99.90
8313;DHT22;4194;43.408;24.626;2023-11-22T03:04:44;8.90;99.90
8313;DHT22;4194;43.408;24.626;2023-11-22T03:07:09;9.10;99.90
8313;DHT22;4194;43.408;24.626;2023-11-22T03:09:35;9.10;99.90
8313;DHT22;4194;43.408;24.626;2023-11-22T03:12:02;8.90;99.90
8313;DHT22;4194;43.408;24.626;2023-11-22T03:14:28;8.90;99.90
8313;DHT22;4194;43.408;24.626;2023-11-22T03:16:55;8.70;99.90
8313;DHT22;4194;43.408;24.626;2023-11-22T03:19:23;8.80;99.90
8313;DHT22;4194;43.408;24.626;2023-11-22T03:21:49;9.00;99.90
8313;DHT22;4194;43.408;24.626;2023-11-22T03:24:15;8.80;99.90
8313;DHT22;4194;43.408;24.626;2023-11-22T03:26:41;9.20;99.90
8313;DHT22;4194;43.408;24.626;2023-11-22T03:29:07;8.90;99.90
8313;DHT22;4194;43.408;24.626;2023-11-22T03:31:33;9.00;99.90
8313;DHT22;4194;43.408;24.626;2023-11-22T03:33:58;8.90;99.90
8313;DHT22;4194;43.408;24.626;2023-11-22T03:36:24;9.10;99.90
8313;DHT22;4194;43.408;24.626;2023-11-22T03:38:50;8.80;99.90
8313;DHT22;4194;43.408;24.626;2023-11-22T03:41:16;9.00;99.90
8313;DHT22;4194;43.408;24.626;2023-11-22T03:43:46;8.80;99.90
8313;DHT22;4194;43.408;24.626;2023-11-22T03:46:12;9.10;99.90
8313;DHT22;4194;43.408;24.626;2023-11-22T03:48:38;8.40;99.90
8313;DHT22;4194;43.408;24.626;2023-11-22T03:51:04;8.70;99.90
8313;DHT22;4194;43.408;24.626;2023-11-22T03:53:29;8.70;99.90
8313;DHT22;4194;43.408;24.626;2023-11-22T03:55:55;8.70;99.90
8313;DHT22;4194;43.408;24.626;2023-11-22T03:58:21;9.00;99.90
8313;DHT22;4194;43.408;24.626;2023-11-22T04:00:47;8.70;99.90
8313;DHT22;4194;43.408;24.626;2023-11-22T04:03:13;9.00;99.90
8313;DHT22;4194;43.408;24.626;2023-11-22T04:05:39;9.00;99.90
8313;DHT22;4194;43.408;24.626;2023-11-22T04:08:04;8.70;99.90
8313;DHT22;4194;43.408;24.626;2023-11-22T04:10:30;8.30;99.90
8313;DHT22;4194;43.408;24.626;2023-11-22T04:12:56;8.80;99.90
8313;DHT22;4194;43.408;24.626;2023-11-22T04:15:22;8.80;99.90
8313;DHT22;4194;43.408;24.626;2023-11-22T04:17:48;8.80;99.90
8313;DHT22;4194;43.408;24.626;2023-11-22T04:20:15;8.80;99.90
8313;DHT22;4194;43.408;24.626;2023-11-22T04:22:41;9.10;99.90
8313;DHT22;4194;43.408;24.626;2023-11-22T04:25:07;8.90;99.90
8313;DHT22;4194;43.408;24.626;2023-11-22T04:27:34;8.70;99.90
8313;DHT22;4194;43.408;24.626;2023-11-22T04:30:00;8.70;99.90
8313;DHT22;4194;43.408;24.626;2023-11-22T04:32:26;8.70;99.90
8313;DHT22;4194;43.408;24.626;2023-11-22T04:34:51;8.70;99.90
8313;DHT22;4194;43.408;24.626;2023-11-22T04:37:17;8.70;99.90
8313;DHT22;4194;43.408;24.626;2023-11-22T04:39:43;8.70;99.90
8313;DHT22;4194;43.408;24.626;2023-11-22T04:42:09;9.00;99.90
8313;DHT22;4194;43.408;24.626;2023-11-22T04:44:35;8.90;99.90
8313;DHT22;4194;43.408;24.626;2023-11-22T04:47:00;8.80;99.90
8313;DHT22;4194;43.408;24.626;2023-11-22T04:49:27;8.10;99.90
8313;DHT22;4194;43.408;24.626;2023-11-22T04:51:52;8.90;99.90
8313;DHT22;4194;43.408;24.626;2023-11-22T04:54:18;8.30;99.90
8313;DHT22;4194;43.408;24.626;2023-11-22T04:56:44;8.80;99.90
8313;DHT22;4194;43.408;24.626;2023-11-22T04:59:10;8.70;99.90
8313;DHT22;4194;43.408;24.626;2023-11-22T05:01:35;9.00;99.90
8313;DHT22;4194;43.408;24.626;2023-11-22T05:04:01;8.70;99.90
8313;DHT22;4194;43.408;24.626;2023-11-22T05:06:27;8.70;99.90
8313;DHT22;4194;43.408;24.626;2023-11-22T05:08:54;9.00;99.90
8313;DHT22;4194;43.408;24.626;2023-11-22T05:11:21;8.60;99.90
8313;DHT22;4194;43.408;24.626;2023-11-22T05:13:46;9.00;99.90
8313;DHT22;4194;43.408;24.626;2023-11-22T05:16:12;8.80;99.90
8313;DHT22;4194;43.408;24.626;2023-11-22T05:18:38;8.90;99.90
8313;DHT22;4194;43.408;24.626;2023-11-22T05:21:04;8.90;99.90
8313;DHT22;4194;43.408;24.626;2023-11-22T05:23:30;8.80;99.90
8313;DHT22;4194;43.408;24.626;2023-11-22T05:25:58;8.80;99.90
8313;DHT22;4194;43.408;24.626;2023-11-22T05:28:25;9.00;99.90
8313;DHT22;4194;43.408;24.626;2023-11-22T05:30:51;9.10;99.90
8313;DHT22;4194;43.408;24.626;2023-11-22T05:33:16;8.90;99.90
8313;DHT22;4194;43.408;24.626;2023-11-22T05:35:42;8.90;99.90
8313;DHT22;4194;43.408;24.626;2023-11-22T05:38:09;8.90;99.90
8313;DHT22;4194;43.408;24.626;2023-11-22T05:40:35;9.00;99.90
8313;DHT22;4194;43.408;24.626;2023-11-22T05:43:01;9.10;99.90
8313;DHT22;4194;43.408;24.626;2023-11-22T05:45:27;9.00;99.90
8313;DHT22;4194;43.408;24.626;2023-11-22T05:47:52;8.90;99.90
8313;DHT22;4194;43.408;24.626;2023-11-22T05:50:18;9.00;99.90
8313;DHT22;4194;43.408;24.626;2023-11-22T05:52:44;9.00;99.90
8313;DHT22;4194;43.408;24.626;2023-11-22T05:55:10;9.00;99.90
8313;DHT22;4194;43.408;24.626;2023-11-22T05:57:40;9.00;99.90
8313;DHT22;4194;43.408;24.626;2023-11-22T06:00:07;9.00;99.90
8313;DHT22;4194;43.408;24.626;2023-11-22T06:02:33;9.00;99.90
8313;DHT22;4194;43.408;24.626;2023-11-22T06:04:59;8.80;99.90
8313;DHT22;4194;43.408;24.626;2023-11-22T06:07:25;9.10;99.90
8313;DHT22;4194;43.408;24.626;2023-11-22T06:09:51;9.00;99.90
8313;DHT22;4194;43.408;24.626;2023-11-22T06:12:17;9.10;99.90
8313;DHT22;4194;43.408;24.626;2023-11-22T06:14:42;9.10;99.90
8313;DHT22;4194;43.408;24.626;2023-11-22T06:17:09;9.10;99.90
8313;DHT22;4194;43.408;24.626;2023-11-22T06:19:35;9.10;99.90
8313;DHT22;4194;43.408;24.626;2023-11-22T06:22:01;9.20;99.90
8313;DHT22;4194;43.408;24.626;2023-11-22T06:24:27;9.10;99.90
8313;DHT22;4194;43.408;24.626;2023-11-22T06:26:53;9.00;99.90
8313;DHT22;4194;43.408;24.626;2023-11-22T06:29:19;9.00;99.90
8313;DHT22;4194;43.408;24.626;2023-11-22T06:31:45;9.10;99.90
8313;DHT22;4194;43.408;24.626;2023-11-22T06:34:11;9.10;99.90
8313;DHT22;4194;43.408;24.626;2023-11-22T06:36:38;9.10;99.90
8313;DHT22;4194;43.408;24.626;2023-11-22T06:39:03;9.10;99.90
8313;DHT22;4194;43.408;24.626;2023-11-22T06:41:30;9.10;99.90
8313;DHT22;4194;43.408;24.626;2023-11-22T06:43:56;9.10;99.90
8313;DHT22;4194;43.408;24.626;2023-11-22T06:46:22;9.00;99.90
8313;DHT22;4194;43.408;24.626;2023-11-22T06:48:48;9.20;99.90
8313;DHT22;4194;43.408;24.626;2023-11-22T06:51:15;9.10;99.90
8313;DHT22;4194;43.408;24.626;2023-11-22T06:53:41;9.00;99.90
8313;DHT22;4194;43.408;24.626;2023-11-22T06:56:07;9.00;99.90
8313;DHT22;4194;43.408;24.626;2023-11-22T06:58:32;9.10;99.90
8313;DHT22;4194;43.408;24.626;2023-11-22T07:00:58;8.90;99.90
8313;DHT22;4194;43.408;24.626;2023-11-22T07:03:24;9.00;99.90
8313;DHT22;4194;43.408;24.626;2023-11-22T07:05:49;9.00;99.90
8313;DHT22;4194;43.408;24.626;2023-11-22T07:08:16;9.10;99.90
8313;DHT22;4194;43.408;24.626;2023-11-22T07:10:44;9.00;99.90
8313;DHT22;4194;43.408;24.626;2023-11-22T07:13:11;9.30;99.90
8313;DHT22;4194;43.408;24.626;2023-11-22T07:15:38;9.00;99.90
8313;DHT22;4194;43.408;24.626;2023-11-22T07:18:05;9.00;99.90
8313;DHT22;4194;43.408;24.626;2023-11-22T07:20:30;9.10;99.90
8313;DHT22;4194;43.408;24.626;2023-11-22T07:22:56;9.20;99.90
8313;DHT22;4194;43.408;24.626;2023-11-22T07:25:23;9.20;99.90
8313;DHT22;4194;43.408;24.626;2023-11-22T07:27:52;9.00;99.90
8313;DHT22;4194;43.408;24.626;2023-11-22T07:30:20;9.30;99.90
8313;DHT22;4194;43.408;24.626;2023-11-22T07:32:50;9.10;99.90
8313;DHT22;4194;43.408;24.626;2023-11-22T07:35:17;9.30;99.90
8313;DHT22;4194;43.408;24.626;2023-11-22T07:37:46;10.10;99.90
8313;DHT22;4194;43.408;24.626;2023-11-22T07:40:13;9.40;99.90
8313;DHT22;4194;43.408;24.626;2023-11-22T07:42:43;9.40;99.90
8313;DHT22;4194;43.408;24.626;2023-11-22T07:45:09;9.40;99.90
8313;DHT22;4194;43.408;24.626;2023-11-22T07:47:37;9.30;99.90
8313;DHT22;4194;43.408;24.626;2023-11-22T07:50:08;9.30;99.90
8313;DHT22;4194;43.408;24.626;2023-11-22T07:52:34;9.40;99.90
8313;DHT22;4194;43.408;24.626;2023-11-22T07:54:59;9.30;99.90
8313;DHT22;4194;43.408;24.626;2023-11-22T07:57:25;9.40;99.90
8313;DHT22;4194;43.408;24.626;2023-11-22T07:59:51;9.30;99.90
8313;DHT22;4194;43.408;24.626;2023-11-22T08:02:21;9.30;99.90
8313;DHT22;4194;43.408;24.626;2023-11-22T08:04:47;9.40;99.90
8313;DHT22;4194;43.408;24.626;2023-11-22T08:07:14;9.40;99.90
8313;DHT22;4194;43.408;24.626;2023-11-22T08:09:43;9.40;99.90
8313;DHT22;4194;43.408;24.626;2023-11-22T08:12:09;9.40;99.90
8313;DHT22;4194;43.408;24.626;2023-11-22T08:14:37;9.40;99.90
8313;DHT22;4194;43.408;24.626;2023-11-22T08:17:03;9.40;99.90
8313;DHT22;4194;43.408;24.626;2023-11-22T08:19:30;9.10;99.90
8313;DHT22;4194;43.408;24.626;2023-11-22T08:21:56;9.40;99.90
8313;DHT22;4194;43.408;24.626;2023-11-22T08:24:23;9.40;99.90
8313;DHT22;4194;43.408;24.626;2023-11-22T08:26:48;9.40;99.90
8313;DHT22;4194;43.408;24.626;2023-11-22T08:29:14;9.50;99.90
8313;DHT22;4194;43.408;24.626;2023-11-22T08:31:40;9.50;99.90
8313;DHT22;4194;43.408;24.626;2023-11-22T08:34:06;9.10;99.90
8313;DHT22;4194;43.408;24.626;2023-11-22T08:36:35;9.50;99.90
8313;DHT22;4194;43.408;24.626;2023-11-22T08:39:01;9.50;99.90
8313;DHT22;4194;43.408;24.626;2023-11-22T08:41:28;9.20;99.90
8313;DHT22;4194;43.408;24.626;2023-11-22T08:43:56;9.40;99.90
8313;DHT22;4194;43.408;24.626;2023-11-22T08:46:22;9.40;99.90
8313;DHT22;4194;43.408;24.626;2023-11-22T08:48:49;9.50;99.90
8313;DHT22;4194;43.408;24.626;2023-11-22T08:51:16;9.50;99.90
8313;DHT22;4194;43.408;24.626;2023-11-22T08:53:43;9.20;99.90
8313;DHT22;4194;43.408;24.626;2023-11-22T08:56:10;9.60;99.90
8313;DHT22;4194;43.408;24.626;2023-11-22T08:58:39;9.60;99.90
8313;DHT22;4194;43.408;24.626;2023-11-22T09:01:07;9.10;99.90
8313;DHT22;4194;43.408;24.626;2023-11-22T09:03:33;9.50;99.90
8313;DHT22;4194;43.408;24.626;2023-11-22T09:05:59;9.80;99.90
8313;DHT22;4194;43.408;24.626;2023-11-22T09:08:26;9.20;99.90
8313;DHT22;4194;43.408;24.626;2023-11-22T09:10:51;9.70;99.90
8313;DHT22;4194;43.408;24.626;2023-11-22T09:13:17;9.70;99.90
8313;DHT22;4194;43.408;24.626;2023-11-22T09:15:44;9.70;99.90
8313;DHT22;4194;43.408;24.626;2023-11-22T09:18:11;9.70;99.90
8313;DHT22;4194;43.408;24.626;2023-11-22T09:20:38;9.70;99.90
8313;DHT22;4194;43.408;24.626;2023-11-22T09:23:04;10.00;99.90
8313;DHT22;4194;43.408;24.626;2023-11-22T09:25:30;9.80;99.90
8313;DHT22;4194;43.408;24.626;2023-11-22T09:27:58;10.10;99.90
8313;DHT22;4194;43.408;24.626;2023-11-22T09:30:29;9.60;99.90
8313;DHT22;4194;43.408;24.626;2023-11-22T09:35:26;9.80;99.90
8313;DHT22;4194;43.408;24.626;2023-11-22T09:37:56;9.70;99.90
8313;DHT22;4194;43.408;24.626;2023-11-22T09:40:22;9.40;99.90
8313;DHT22;4194;43.408;24.626;2023-11-22T09:42:48;10.10;99.90
8313;DHT22;4194;43.408;24.626;2023-11-22T09:45:20;9.70;99.90
8313;DHT22;4194;43.408;24.626;2023-11-22T09:47:46;9.70;99.90
8313;DHT22;4194;43.408;24.626;2023-11-22T09:50:17;10.10;99.90
8313;DHT22;4194;43.408;24.626;2023-11-22T09:52:49;9.80;99.90
8313;DHT22;4194;43.408;24.626;2023-11-22T09:55:17;9.70;99.90
8313;DHT22;4194;43.408;24.626;2023-11-22T09:57:43;9.90;99.90
8313;DHT22;4194;43.408;24.626;2023-11-22T10:00:11;9.90;99.90
8313;DHT22;4194;43.408;24.626;2023-11-22T10:02:40;10.00;99.90
8313;DHT22;4194;43.408;24.626;2023-11-22T10:05:07;10.10;99.90
8313;DHT22;4194;43.408;24.626;2023-11-22T10:07:34;10.00;99.90
8313;DHT22;4194;43.408;24.626;2023-11-22T10:10:02;9.60;99.90
8313;DHT22;4194;43.408;24.626;2023-11-22T10:12:31;10.10;99.90
8313;DHT22;4194;43.408;24.626;2023-11-22T10:15:16;9.70;99.90
8313;DHT22;4194;43.408;24.626;2023-11-22T10:18:10;9.60;99.90
8313;DHT22;4194;43.408;24.626;2023-11-22T10:20:40;9.70;99.90
8313;DHT22;4194;43.408;24.626;2023-11-22T10:23:10;9.70;99.90
8313;DHT22;4194;43.408;24.626;2023-11-22T10:28:10;9.70;99.90
8313;DHT22;4194;43.408;24.626;2023-11-22T10:30:35;9.70;99.90
8313;DHT22;4194;43.408;24.626;2023-11-22T10:33:02;9.80;99.90
8313;DHT22;4194;43.408;24.626;2023-11-22T10:35:29;9.70;99.90
8313;DHT22;4194;43.408;24.626;2023-11-22T10:37:55;9.60;99.90
8313;DHT22;4194;43.408;24.626;2023-11-22T10:40:20;9.60;99.90
8313;DHT22;4194;43.408;24.626;2023-11-22T10:42:48;9.90;99.90
8313;DHT22;4194;43.408;24.626;2023-11-22T10:45:18;10.10;99.90
8313;DHT22;4194;43.408;24.626;2023-11-22T10:47:45;9.20;99.90
8313;DHT22;4194;43.408;24.626;2023-11-22T10:50:11;9.70;99.90
8313;DHT22;4194;43.408;24.626;2023-11-22T10:52:41;9.70;99.90
8313;DHT22;4194;43.408;24.626;2023-11-22T10:55:07;9.70;99.90
8313;DHT22;4194;43.408;24.626;2023-11-22T10:57:45;9.70;99.90
8313;DHT22;4194;43.408;24.626;2023-11-22T11:00:15;9.70;99.90
8313;DHT22;4194;43.408;24.626;2023-11-22T11:02:45;9.70;99.90
8313;DHT22;4194;43.408;24.626;2023-11-22T11:05:16;10.20;99.90
8313;DHT22;4194;43.408;24.626;2023-11-22T11:08:00;9.80;99.90
8313;DHT22;4194;43.408;24.626;2023-11-22T11:10:28;9.60;99.90
8313;DHT22;4194;43.408;24.626;2023-11-22T11:12:55;9.70;99.90
8313;DHT22;4194;43.408;24.626;2023-11-22T11:15:22;9.70;99.90
8313;DHT22;4194;43.408;24.626;2023-11-22T11:17:49;9.30;99.90
8313;DHT22;4194;43.408;24.626;2023-11-22T11:20:16;9.70;99.90
8313;DHT22;4194;43.408;24.626;2023-11-22T11:22:44;9.90;99.90
8313;DHT22;4194;43.408;24.626;2023-11-22T11:25:17;9.70;99.90
8313;DHT22;4194;43.408;24.626;2023-11-22T11:27:44;9.70;99.90
8313;DHT22;4194;43.408;24.626;2023-11-22T11:30:49;9.70;99.90
8313;DHT22;4194;43.408;24.626;2023-11-22T11:33:26;9.80;99.90
8313;DHT22;4194;43.408;24.626;2023-11-22T11:35:52;9.80;99.90
8313;DHT22;4194;43.408;24.626;2023-11-22T11:38:21;9.90;99.90
8313;DHT22;4194;43.408;24.626;2023-11-22T11:40:51;9.90;99.90
8313;DHT22;4194;43.408;24.626;2023-11-22T11:43:40;9.90;99.90
8313;DHT22;4194;43.408;24.626;2023-11-22T11:46:10;9.70;99.90
8313;DHT22;4194;43.408;24.626;2023-11-22T11:48:36;9.90;99.90
8313;DHT22;4194;43.408;24.626;2023-11-22T11:51:03;9.90;99.90
8313;DHT22;4194;43.408;24.626;2023-11-22T11:53:32;9.80;99.90
8313;DHT22;4194;43.408;24.626;2023-11-22T11:55:58;9.40;99.90
8313;DHT22;4194;43.408;24.626;2023-11-22T11:58:24;9.30;99.90
8313;DHT22;4194;43.408;24.626;2023-11-22T12:00:55;9.90;99.90
8313;DHT22;4194;43.408;24.626;2023-11-22T12:03:21;9.80;99.90
8313;DHT22;4194;43.408;24.626;2023-11-22T12:05:47;9.80;99.90
8313;DHT22;4194;43.408;24.626;2023-11-22T12:08:16;9.40;99.90
8313;DHT22;4194;43.408;24.626;2023-11-22T12:10:43;9.80;99.90
8313;DHT22;4194;43.408;24.626;2023-11-22T12:13:09;9.80;99.90
8313;DHT22;4194;43.408;24.626;2023-11-22T12:15:35;10.30;99.90
8313;DHT22;4194;43.408;24.626;2023-11-22T12:18:01;9.70;99.90
8313;DHT22;4194;43.408;24.626;2023-11-22T12:20:27;10.10;99.90
8313;DHT22;4194;43.408;24.626;2023-11-22T12:23:00;9.30;99.90
8313;DHT22;4194;43.408;24.626;2023-11-22T12:25:32;9.90;99.90
8313;DHT22;4194;43.408;24.626;2023-11-22T12:27:58;9.40;99.90
8313;DHT22;4194;43.408;24.626;2023-11-22T12:30:34;9.80;99.90
8313;DHT22;4194;43.408;24.626;2023-11-22T12:33:10;9.70;99.90
8313;DHT22;4194;43.408;24.626;2023-11-22T12:35:38;9.70;99.90
8313;DHT22;4194;43.408;24.626;2023-11-22T12:38:06;9.70;99.90
8313;DHT22;4194;43.408;24.626;2023-11-22T12:40:32;9.90;99.90
8313;DHT22;4194;43.408;24.626;2023-11-22T12:42:59;10.00;99.90
8313;DHT22;4194;43.408;24.626;2023-11-22T12:45:27;9.90;99.90
8313;DHT22;4194;43.408;24.626;2023-11-22T12:47:57;9.80;99.90
8313;DHT22;4194;43.408;24.626;2023-11-22T12:50:32;9.80;99.90
8313;DHT22;4194;43.408;24.626;2023-11-22T12:53:06;9.80;99.90
8313;DHT22;4194;43.408;24.626;2023-11-22T12:55:32;9.70;99.90
8313;DHT22;4194;43.408;24.626;2023-11-22T12:58:01;9.80;99.90
8313;DHT22;4194;43.408;24.626;2023-11-22T13:00:29;9.90;99.90
8313;DHT22;4194;43.408;24.626;2023-11-22T13:02:59;9.40;99.90
8313;DHT22;4194;43.408;24.626;2023-11-22T13:05:25;9.50;99.90
8313;DHT22;4194;43.408;24.626;2023-11-22T13:07:51;10.10;99.90
8313;DHT22;4194;43.408;24.626;2023-11-22T13:10:18;9.90;99.90
8313;DHT22;4194;43.408;24.626;2023-11-22T13:12:44;9.80;99.90
8313;DHT22;4194;43.408;24.626;2023-11-22T13:15:11;9.90;99.90
8313;DHT22;4194;43.408;24.626;2023-11-22T13:17:38;9.90;99.90
8313;DHT22;4194;43.408;24.626;2023-11-22T13:20:07;10.10;99.90
8313;DHT22;4194;43.408;24.626;2023-11-22T13:22:42;9.90;99.90
8313;DHT22;4194;43.408;24.626;2023-11-22T13:25:09;9.80;99.90
8313;DHT22;4194;43.408;24.626;2023-11-22T13:27:39;9.80;99.90
8313;DHT22;4194;43.408;24.626;2023-11-22T13:30:06;9.70;99.90
8313;DHT22;4194;43.408;24.626;2023-11-22T13:32:33;9.70;99.90
8313;DHT22;4194;43.408;24.626;2023-11-22T13:34:59;9.70;99.90
8313;DHT22;4194;43.408;24.626;2023-11-22T13:37:25;9.80;99.90
8313;DHT22;4194;43.408;24.626;2023-11-22T13:39:51;9.80;99.90
8313;DHT22;4194;43.408;24.626;2023-11-22T13:42:16;9.90;99.90
8313;DHT22;4194;43.408;24.626;2023-11-22T13:44:42;9.70;99.90
8313;DHT22;4194;43.408;24.626;2023-11-22T13:47:13;9.80;99.90
8313;DHT22;4194;43.408;24.626;2023-11-22T13:49:41;9.80;99.90
8313;DHT22;4194;43.408;24.626;2023-11-22T13:52:08;9.80;99.90
8313;DHT22;4194;43.408;24.626;2023-11-22T13:54:35;9.80;99.90
8313;DHT22;4194;43.408;24.626;2023-11-22T13:57:04;9.80;99.90
8313;DHT22;4194;43.408;24.626;2023-11-22T13:59:34;9.80;99.90
8313;DHT22;4194;43.408;24.626;2023-11-22T14:02:00;9.80;99.90
8313;DHT22;4194;43.408;24.626;2023-11-22T14:04:26;10.10;99.90
8313;DHT22;4194;43.408;24.626;2023-11-22T14:06:51;9.80;99.90
8313;DHT22;4194;43.408;24.626;2023-11-22T14:09:17;9.80;99.90
8313;DHT22;4194;43.408;24.626;2023-11-22T14:11:45;9.80;99.90
8313;DHT22;4194;43.408;24.626;2023-11-22T14:14:10;10.00;99.90
8313;DHT22;4194;43.408;24.626;2023-11-22T14:16:36;10.10;99.90
8313;DHT22;4194;43.408;24.626;2023-11-22T14:19:04;9.70;99.90
8313;DHT22;4194;43.408;24.626;2023-11-22T14:21:31;9.70;99.90
8313;DHT22;4194;43.408;24.626;2023-11-22T14:23:58;9.70;99.90
8313;DHT22;4194;43.408;24.626;2023-11-22T14:26:24;9.60;99.90
8313;DHT22;4194;43.408;24.626;2023-11-22T14:28:49;9.70;99.90
8313;DHT22;4194;43.408;24.626;2023-11-22T14:31:15;9.70;99.90
8313;DHT22;4194;43.408;24.626;2023-11-22T14:33:41;9.70;99.90
8313;DHT22;4194;43.408;24.626;2023-11-22T14:36:07;9.70;99.90
8313;DHT22;4194;43.408;24.626;2023-11-22T14:38:33;9.70;99.90
8313;DHT22;4194;43.408;24.626;2023-11-22T14:40:59;10.10;99.90
8313;DHT22;4194;43.408;24.626;2023-11-22T14:43:24;9.70;99.90
8313;DHT22;4194;43.408;24.626;2023-11-22T14:45:50;9.60;99.90
8313;DHT22;4194;43.408;24.626;2023-11-22T14:48:16;9.70;99.90
8313;DHT22;4194;43.408;24.626;2023-11-22T14:50:41;9.60;99.90
8313;DHT22;4194;43.408;24.626;2023-11-22T14:53:07;9.60;99.90
8313;DHT22;4194;43.408;24.626;2023-11-22T14:55:33;9.60;99.90
8313;DHT22;4194;43.408;24.626;2023-11-22T14:58:03;9.60;99.90
8313;DHT22;4194;43.408;24.626;2023-11-22T15:00:30;9.50;99.90
8313;DHT22;4194;43.408;24.626;2023-11-22T15:02:56;9.40;99.90
8313;DHT22;4194;43.408;24.626;2023-11-22T15:05:22;9.90;99.90
8313;DHT22;4194;43.408;24.626;2023-11-22T15:07:49;9.50;99.90
8313;DHT22;4194;43.408;24.626;2023-11-22T15:10:20;9.60;99.90
8313;DHT22;4194;43.408;24.626;2023-11-22T15:12:47;9.60;99.90
8313;DHT22;4194;43.408;24.626;2023-11-22T15:15:14;9.60;99.90
8313;DHT22;4194;43.408;24.626;2023-11-22T15:17:39;10.00;99.90
8313;DHT22;4194;43.408;24.626;2023-11-22T15:20:06;9.50;99.90
8313;DHT22;4194;43.408;24.626;2023-11-22T15:22:39;9.90;99.90
8313;DHT22;4194;43.408;24.626;2023-11-22T15:25:05;9.10;99.90
8313;DHT22;4194;43.408;24.626;2023-11-22T15:27:31;9.40;99.90
8313;DHT22;4194;43.408;24.626;2023-11-22T15:29:57;9.80;99.90
8313;DHT22;4194;43.408;24.626;2023-11-22T15:32:23;7.30;99.90
8313;DHT22;4194;43.408;24.626;2023-11-22T15:34:48;9.10;99.90
8313;DHT22;4194;43.408;24.626;2023-11-22T15:37:14;9.00;99.90
8313;DHT22;4194;43.408;24.626;2023-11-22T15:39:42;9.20;99.90
8313;DHT22;4194;43.408;24.626;2023-11-22T15:42:07;9.30;99.90
8313;DHT22;4194;43.408;24.626;2023-11-22T15:44:33;9.20;99.90
8313;DHT22;4194;43.408;24.626;2023-11-22T15:46:59;9.10;99.90
8313;DHT22;4194;43.408;24.626;2023-11-22T15:49:30;9.20;99.90
8313;DHT22;4194;43.408;24.626;2023-11-22T15:51:56;9.10;99.90
8313;DHT22;4194;43.408;24.626;2023-11-22T15:54:22;9.10;99.90
8313;DHT22;4194;43.408;24.626;2023-11-22T15:56:47;9.00;99.90
8313;DHT22;4194;43.408;24.626;2023-11-22T15:59:13;9.10;99.90
8313;DHT22;4194;43.408;24.626;2023-11-22T16:01:39;9.10;99.90
8313;DHT22;4194;43.408;24.626;2023-11-22T16:04:04;9.10;99.90